Terminal Aerodrome Forecast
Issued by NWS

Home | Current Version | Previous Version | Text Only | Print | Product List | Glossary On
Versions: 1 2 3 4 5 6 7 8 9 10 11 12 13 14 15 16 17 18 19 20 21
000
FTUS41 KBGM 211400 AAA
TAFELM
TAF AMD
KELM 211432Z 2115/2212 22010G20KT P6SM BKN040
      TEMPO 2116/2118 5SM SHRA BR BKN025 OVC035
     FM211800 23010G18KT P6SM BKN040
      TEMPO 2119/2121 3SM TSRA BR OVC025CB
     FM212200 27006KT P6SM BKN040
     FM220500 30005KT P6SM OVC025=

USA.gov is the U.S. government's official web portal to all federal, state and local government web resources and services.